Terminal Aerodrome Forecast
Issued by NWS Corpus Christi, TX

Home | Current Version | Previous Version | Text Only | Print | Product List | Glossary On
Versions: 1 2 3 4 5 6 7 8 9 10 11 12
812
FTUS44 KCRP 220540
TAFVCT
TAF
KVCT 220540Z 2206/2306 16005KT P6SM SCT020
      TEMPO 2210/2213 5SM BR BKN020
     FM221500 18009KT P6SM VCSH SCT025
      TEMPO 2215/2217 BKN025
     FM221800 17010G18KT P6SM VCTS SCT040CB BKN250 PROB30 2218/2222
      5SM TSRA BKN040CB
     FM230300 17006KT P6SM SCT020=

USA.gov is the U.S. government's official web portal to all federal, state and local government web resources and services.